sensor_id;sensor_type;location;lat;lon;timestamp;pressure;altitude;pressure_sealevel;temperature;humidity
71778;BME280;59609;52.430;4.668;2023-05-25T00:00:09;102631.88;;;11.57;100.00
71778;BME280;59609;52.430;4.668;2023-05-25T00:02:36;102619.22;;;11.44;100.00
71778;BME280;59609;52.430;4.668;2023-05-25T00:05:02;102635.13;;;11.51;100.00
71778;BME280;59609;52.430;4.668;2023-05-25T00:07:27;102613.97;;;11.41;100.00
71778;BME280;59609;52.430;4.668;2023-05-25T00:09:53;102635.53;;;11.47;100.00
71778;BME280;59609;52.430;4.668;2023-05-25T00:12:19;102644.78;;;11.57;100.00
71778;BME280;59609;52.430;4.668;2023-05-25T00:14:44;102647.03;;;11.52;100.00
71778;BME280;59609;52.430;4.668;2023-05-25T00:17:10;102617.75;;;11.28;100.00
71778;BME280;59609;52.430;4.668;2023-05-25T00:19:36;102633.41;;;11.39;100.00
71778;BME280;59609;52.430;4.668;2023-05-25T00:22:07;102641.69;;;11.39;100.00
71778;BME280;59609;52.430;4.668;2023-05-25T00:24:33;102639.28;;;11.34;100.00
71778;BME280;59609;52.430;4.668;2023-05-25T00:27:01;102656.47;;;11.38;100.00
71778;BME280;59609;52.430;4.668;2023-05-25T00:29:27;102648.97;;;11.29;100.00
71778;BME280;59609;52.430;4.668;2023-05-25T00:31:53;102615.66;;;11.10;100.00
71778;BME280;59609;52.430;4.668;2023-05-25T00:34:19;102636.56;;;11.23;100.00
71778;BME280;59609;52.430;4.668;2023-05-25T00:36:45;102642.19;;;11.22;100.00
71778;BME280;59609;52.430;4.668;2023-05-25T00:39:17;102633.19;;;11.20;100.00
71778;BME280;59609;52.430;4.668;2023-05-25T00:41:44;102642.47;;;11.19;100.00
71778;BME280;59609;52.430;4.668;2023-05-25T00:44:10;102629.44;;;11.10;100.00
71778;BME280;59609;52.430;4.668;2023-05-25T00:46:36;102635.06;;;11.08;100.00
71778;BME280;59609;52.430;4.668;2023-05-25T00:49:03;102656.41;;;11.17;100.00
71778;BME280;59609;52.430;4.668;2023-05-25T00:51:29;102605.38;;;10.90;100.00
71778;BME280;59609;52.430;4.668;2023-05-25T00:57:19;102662.03;;;11.16;100.00
71778;BME280;59609;52.430;4.668;2023-05-25T00:59:49;102671.28;;;11.15;100.00
71778;BME280;59609;52.430;4.668;2023-05-25T01:02:16;102651.25;;;11.02;100.00
71778;BME280;59609;52.430;4.668;2023-05-25T01:04:49;102647.13;;;10.96;100.00
71778;BME280;59609;52.430;4.668;2023-05-25T01:07:26;102650.75;;;10.97;100.00
71778;BME280;59609;52.430;4.668;2023-05-25T01:10:04;102663.16;;;11.02;100.00
71778;BME280;59609;52.430;4.668;2023-05-25T01:12:34;102663.53;;;10.98;100.00
71778;BME280;59609;52.430;4.668;2023-05-25T01:15:02;102660.03;;;10.96;100.00
71778;BME280;59609;52.430;4.668;2023-05-25T01:17:28;102668.94;;;10.99;100.00
71778;BME280;59609;52.430;4.668;2023-05-25T01:19:53;102655.91;;;10.90;100.00
71778;BME280;59609;52.430;4.668;2023-05-25T01:25:38;102679.31;;;10.96;100.00
71778;BME280;59609;52.430;4.668;2023-05-25T01:28:20;102662.75;;;10.84;100.00
71778;BME280;59609;52.430;4.668;2023-05-25T01:30:48;102677.69;;;10.93;100.00
71778;BME280;59609;52.430;4.668;2023-05-25T01:33:19;102658.63;;;10.79;100.00
71778;BME280;59609;52.430;4.668;2023-05-25T01:35:45;102643.09;;;10.67;100.00
71778;BME280;59609;52.430;4.668;2023-05-25T01:38:11;102681.06;;;10.85;100.00
71778;BME280;59609;52.430;4.668;2023-05-25T01:40:37;102654.38;;;10.64;100.00
71778;BME280;59609;52.430;4.668;2023-05-25T01:43:02;102679.56;;;10.81;100.00
71778;BME280;59609;52.430;4.668;2023-05-25T01:45:28;102679.06;;;10.76;100.00
71778;BME280;59609;52.430;4.668;2023-05-25T01:53:18;102676.81;;;10.81;100.00
71778;BME280;59609;52.430;4.668;2023-05-25T01:55:57;102683.97;;;10.95;100.00
71778;BME280;59609;52.430;4.668;2023-05-25T01:58:24;102691.38;;;11.06;100.00
71778;BME280;59609;52.430;4.668;2023-05-25T02:00:51;102687.22;;;11.11;100.00
71778;BME280;59609;52.430;4.668;2023-05-25T02:03:17;102677.69;;;11.15;100.00
71778;BME280;59609;52.430;4.668;2023-05-25T02:05:44;102704.03;;;11.30;100.00
71778;BME280;59609;52.430;4.668;2023-05-25T02:08:10;102692.34;;;11.38;100.00
71778;BME280;59609;52.430;4.668;2023-05-25T02:10:35;102701.88;;;11.45;100.00
71778;BME280;59609;52.430;4.668;2023-05-25T02:13:01;102705.78;;;11.54;100.00
71778;BME280;59609;52.430;4.668;2023-05-25T02:15:31;102699.34;;;11.64;100.00
71778;BME280;59609;52.430;4.668;2023-05-25T02:17:57;102698.88;;;11.70;100.00
71778;BME280;59609;52.430;4.668;2023-05-25T02:20:24;102697.94;;;11.81;100.00
71778;BME280;59609;52.430;4.668;2023-05-25T02:22:50;102700.22;;;11.87;100.00
71778;BME280;59609;52.430;4.668;2023-05-25T02:25:16;102698.94;;;11.91;100.00
71778;BME280;59609;52.430;4.668;2023-05-25T02:27:42;102703.44;;;11.92;100.00
71778;BME280;59609;52.430;4.668;2023-05-25T02:30:07;102699.69;;;11.93;100.00
71778;BME280;59609;52.430;4.668;2023-05-25T02:32:33;102701.06;;;11.87;100.00
71778;BME280;59609;52.430;4.668;2023-05-25T02:34:59;102694.19;;;11.82;100.00
71778;BME280;59609;52.430;4.668;2023-05-25T02:37:24;102690.19;;;11.75;100.00
71778;BME280;59609;52.430;4.668;2023-05-25T02:39:50;102691.34;;;11.72;100.00
71778;BME280;59609;52.430;4.668;2023-05-25T02:42:15;102700.97;;;11.67;100.00
71778;BME280;59609;52.430;4.668;2023-05-25T02:44:41;102695.22;;;11.59;100.00
71778;BME280;59609;52.430;4.668;2023-05-25T02:47:13;102698.97;;;11.58;100.00
71778;BME280;59609;52.430;4.668;2023-05-25T02:49:38;102702.88;;;11.55;100.00
71778;BME280;59609;52.430;4.668;2023-05-25T02:52:04;102699.38;;;11.53;100.00
71778;BME280;59609;52.430;4.668;2023-05-25T02:54:30;102709.28;;;11.56;100.00
71778;BME280;59609;52.430;4.668;2023-05-25T02:56:55;102709.28;;;11.56;100.00
71778;BME280;59609;52.430;4.668;2023-05-25T02:59:20;102703.28;;;11.51;100.00
71778;BME280;59609;52.430;4.668;2023-05-25T03:01:46;102701.88;;;11.45;100.00
71778;BME280;59609;52.430;4.668;2023-05-25T03:04:11;102719.47;;;11.44;100.00
71778;BME280;59609;52.430;4.668;2023-05-25T03:06:37;102719.59;;;11.43;100.00
71778;BME280;59609;52.430;4.668;2023-05-25T03:09:03;102730.09;;;11.37;100.00
71778;BME280;59609;52.430;4.668;2023-05-25T03:11:30;102726.75;;;11.34;100.00
71778;BME280;59609;52.430;4.668;2023-05-25T03:13:55;102714.47;;;11.27;100.00
71778;BME280;59609;52.430;4.668;2023-05-25T03:16:20;102714.94;;;11.21;100.00
71778;BME280;59609;52.430;4.668;2023-05-25T03:18:47;102714.44;;;11.16;100.00
71778;BME280;59609;52.430;4.668;2023-05-25T03:21:12;102716.69;;;11.11;100.00
71778;BME280;59609;52.430;4.668;2023-05-25T03:23:38;102714.31;;;11.06;100.00
71778;BME280;59609;52.430;4.668;2023-05-25T03:26:03;102720.19;;;11.02;100.00
71778;BME280;59609;52.430;4.668;2023-05-25T03:28:29;102717.81;;;10.97;100.00
71778;BME280;59609;52.430;4.668;2023-05-25T03:30:54;102732.09;;;10.91;100.00
71778;BME280;59609;52.430;4.668;2023-05-25T03:33:20;102730.47;;;10.89;100.00
71778;BME280;59609;52.430;4.668;2023-05-25T03:35:46;102736.97;;;10.88;100.00
71778;BME280;59609;52.430;4.668;2023-05-25T03:38:11;102740.34;;;10.91;100.00
71778;BME280;59609;52.430;4.668;2023-05-25T03:40:36;102736.84;;;10.89;100.00
71778;BME280;59609;52.430;4.668;2023-05-25T03:43:02;102724.19;;;10.87;100.00
71778;BME280;59609;52.430;4.668;2023-05-25T03:45:27;102729.72;;;10.87;100.00
71778;BME280;59609;52.430;4.668;2023-05-25T03:47:53;102729.31;;;10.91;100.00
71778;BME280;59609;52.430;4.668;2023-05-25T03:50:18;102721.19;;;10.90;100.00
71778;BME280;59609;52.430;4.668;2023-05-25T03:52:44;102722.19;;;10.89;100.00
71778;BME280;59609;52.430;4.668;2023-05-25T03:55:10;102731.34;;;10.89;100.00
71778;BME280;59609;52.430;4.668;2023-05-25T03:57:35;102732.72;;;10.95;100.00
71778;BME280;59609;52.430;4.668;2023-05-25T04:00:01;102727.34;;;10.93;100.00
71778;BME280;59609;52.430;4.668;2023-05-25T04:02:26;102728.84;;;11.08;100.00
71778;BME280;59609;52.430;4.668;2023-05-25T04:04:51;102736.00;;;11.22;100.00
71778;BME280;59609;52.430;4.668;2023-05-25T04:07:18;102735.50;;;11.28;100.00
71778;BME280;59609;52.430;4.668;2023-05-25T04:09:44;102734.00;;;11.35;100.00
71778;BME280;59609;52.430;4.668;2023-05-25T04:12:10;102740.28;;;11.37;100.00
71778;BME280;59609;52.430;4.668;2023-05-25T04:14:35;102744.94;;;11.36;100.00
71778;BME280;59609;52.430;4.668;2023-05-25T04:17:02;102743.78;;;11.39;100.00
71778;BME280;59609;52.430;4.668;2023-05-25T04:19:27;102744.94;;;11.36;100.00
71778;BME280;59609;52.430;4.668;2023-05-25T04:21:52;102749.44;;;11.37;100.00
71778;BME280;59609;52.430;4.668;2023-05-25T04:24:18;102743.53;;;11.31;100.00
71778;BME280;59609;52.430;4.668;2023-05-25T04:26:43;102757.47;;;11.41;100.00
71778;BME280;59609;52.430;4.668;2023-05-25T04:29:10;102754.72;;;11.41;100.00
71778;BME280;59609;52.430;4.668;2023-05-25T04:31:36;102753.34;;;11.46;100.00
71778;BME280;59609;52.430;4.668;2023-05-25T04:34:03;102761.09;;;11.52;100.00
71778;BME280;59609;52.430;4.668;2023-05-25T04:36:28;102763.34;;;11.58;100.00
71778;BME280;59609;52.430;4.668;2023-05-25T04:38:56;102753.97;;;11.61;100.00
71778;BME280;59609;52.430;4.668;2023-05-25T04:41:27;102766.13;;;11.69;100.00
71778;BME280;59609;52.430;4.668;2023-05-25T04:43:54;102771.41;;;11.72;100.00
71778;BME280;59609;52.430;4.668;2023-05-25T04:46:19;102776.31;;;11.80;100.00
71778;BME280;59609;52.430;4.668;2023-05-25T04:48:44;102775.78;;;11.86;100.00
71778;BME280;59609;52.430;4.668;2023-05-25T04:51:10;102777.25;;;12.01;100.00
71778;BME280;59609;52.430;4.668;2023-05-25T04:53:36;102770.03;;;14.06;99.25
71778;BME280;59609;52.430;4.668;2023-05-25T04:56:02;102773.88;;;15.66;86.35
71778;BME280;59609;52.430;4.668;2023-05-25T04:58:28;102784.03;;;16.75;81.92
71778;BME280;59609;52.430;4.668;2023-05-25T05:00:57;102787.34;;;17.39;74.00
71778;BME280;59609;52.430;4.668;2023-05-25T05:03:22;102779.69;;;18.01;71.66
71778;BME280;59609;52.430;4.668;2023-05-25T05:05:48;102783.91;;;18.13;70.13
71778;BME280;59609;52.430;4.668;2023-05-25T05:08:13;102791.50;;;18.37;68.33
71778;BME280;59609;52.430;4.668;2023-05-25T05:10:39;102799.25;;;18.75;66.05
71778;BME280;59609;52.430;4.668;2023-05-25T05:13:05;102800.97;;;18.52;68.80
71778;BME280;59609;52.430;4.668;2023-05-25T05:15:30;102800.41;;;18.48;68.53
71778;BME280;59609;52.430;4.668;2023-05-25T05:17:56;102794.09;;;18.38;67.67
71778;BME280;59609;52.430;4.668;2023-05-25T05:20:21;102800.81;;;18.54;68.40
71778;BME280;59609;52.430;4.668;2023-05-25T05:22:47;102799.94;;;17.26;72.96
71778;BME280;59609;52.430;4.668;2023-05-25T05:25:12;102810.69;;;16.05;79.94
71778;BME280;59609;52.430;4.668;2023-05-25T05:27:38;102809.78;;;15.50;82.72
71778;BME280;59609;52.430;4.668;2023-05-25T05:30:04;102800.63;;;15.77;85.81
71778;BME280;59609;52.430;4.668;2023-05-25T05:32:30;102809.91;;;16.67;80.32
71778;BME280;59609;52.430;4.668;2023-05-25T05:34:55;102811.50;;;16.87;78.78
71778;BME280;59609;52.430;4.668;2023-05-25T05:37:21;102811.16;;;16.55;79.65
71778;BME280;59609;52.430;4.668;2023-05-25T05:39:46;102814.03;;;16.36;81.36
71778;BME280;59609;52.430;4.668;2023-05-25T05:42:11;102814.28;;;15.98;83.30
71778;BME280;59609;52.430;4.668;2023-05-25T05:44:37;102815.91;;;15.44;87.20
71778;BME280;59609;52.430;4.668;2023-05-25T05:47:02;102815.81;;;15.26;87.86
71778;BME280;59609;52.430;4.668;2023-05-25T05:49:29;102809.78;;;15.50;86.50
71778;BME280;59609;52.430;4.668;2023-05-25T05:51:55;102821.78;;;15.51;88.39
71778;BME280;59609;52.430;4.668;2023-05-25T05:54:20;102825.88;;;15.37;87.17
71778;BME280;59609;52.430;4.668;2023-05-25T05:56:46;102828.19;;;15.41;87.70
71778;BME280;59609;52.430;4.668;2023-05-25T05:59:11;102836.25;;;15.25;88.22
71778;BME280;59609;52.430;4.668;2023-05-25T06:01:37;102833.78;;;15.51;86.42
71778;BME280;59609;52.430;4.668;2023-05-25T06:04:04;102840.59;;;15.66;86.61
71778;BME280;59609;52.430;4.668;2023-05-25T06:06:30;102841.28;;;15.68;86.77
71778;BME280;59609;52.430;4.668;2023-05-25T06:08:57;102838.78;;;15.75;86.49
71778;BME280;59609;52.430;4.668;2023-05-25T06:11:23;102838.25;;;15.98;86.47
71778;BME280;59609;52.430;4.668;2023-05-25T06:13:48;102843.91;;;15.79;85.49
71778;BME280;59609;52.430;4.668;2023-05-25T06:16:13;102839.50;;;15.86;86.52
71778;BME280;59609;52.430;4.668;2023-05-25T06:18:39;102842.22;;;15.96;85.25
71778;BME280;59609;52.430;4.668;2023-05-25T06:21:05;102842.41;;;15.85;86.46
71778;BME280;59609;52.430;4.668;2023-05-25T06:23:30;102837.19;;;15.72;86.26
71778;BME280;59609;52.430;4.668;2023-05-25T06:25:56;102857.16;;;15.49;87.60
71778;BME280;59609;52.430;4.668;2023-05-25T06:28:21;102854.34;;;15.58;86.81
71778;BME280;59609;52.430;4.668;2023-05-25T06:30:47;102854.38;;;15.39;87.34
71778;BME280;59609;52.430;4.668;2023-05-25T06:33:12;102856.16;;;15.30;87.60
71778;BME280;59609;52.430;4.668;2023-05-25T06:35:37;102848.28;;;15.16;87.46
71778;BME280;59609;52.430;4.668;2023-05-25T06:38:03;102854.41;;;15.20;89.30
71778;BME280;59609;52.430;4.668;2023-05-25T06:40:28;102854.09;;;15.23;87.77
71778;BME280;59609;52.430;4.668;2023-05-25T06:42:53;102855.09;;;15.60;85.92
71778;BME280;59609;52.430;4.668;2023-05-25T06:45:20;102859.91;;;15.58;85.85
71778;BME280;59609;52.430;4.668;2023-05-25T06:47:45;102854.53;;;15.93;86.07
71778;BME280;59609;52.430;4.668;2023-05-25T06:50:10;102853.06;;;16.71;82.82
71778;BME280;59609;52.430;4.668;2023-05-25T06:52:36;102858.16;;;16.76;81.24
71778;BME280;59609;52.430;4.668;2023-05-25T06:55:02;102870.03;;;17.74;75.87
71778;BME280;59609;52.430;4.668;2023-05-25T06:57:28;102874.56;;;17.14;77.93
71778;BME280;59609;52.430;4.668;2023-05-25T06:59:53;102876.47;;;16.78;78.63
71778;BME280;59609;52.430;4.668;2023-05-25T07:02:19;102879.00;;;16.44;80.49
71778;BME280;59609;52.430;4.668;2023-05-25T07:04:45;102879.88;;;16.45;80.90
71778;BME280;59609;52.430;4.668;2023-05-25T07:07:10;102885.19;;;16.38;81.21
71778;BME280;59609;52.430;4.668;2023-05-25T07:09:37;102882.34;;;16.58;81.50
71778;BME280;59609;52.430;4.668;2023-05-25T07:12:04;102881.78;;;16.72;80.64
71778;BME280;59609;52.430;4.668;2023-05-25T07:14:33;102882.66;;;16.45;80.81
71778;BME280;59609;52.430;4.668;2023-05-25T07:16:58;102894.94;;;16.97;79.00
71778;BME280;59609;52.430;4.668;2023-05-25T07:19:24;102895.16;;;17.57;76.34
71778;BME280;59609;52.430;4.668;2023-05-25T07:21:49;102901.06;;;17.79;75.26
71778;BME280;59609;52.430;4.668;2023-05-25T07:24:15;102898.97;;;17.81;75.12
71778;BME280;59609;52.430;4.668;2023-05-25T07:26:40;102901.88;;;18.31;71.60
71778;BME280;59609;52.430;4.668;2023-05-25T07:29:08;102908.78;;;18.11;71.80
71778;BME280;59609;52.430;4.668;2023-05-25T07:31:33;102909.53;;;18.21;71.33
71778;BME280;59609;52.430;4.668;2023-05-25T07:33:59;102909.94;;;18.76;70.39
71778;BME280;59609;52.430;4.668;2023-05-25T07:36:24;102915.94;;;18.47;69.05
71778;BME280;59609;52.430;4.668;2023-05-25T07:38:49;102910.09;;;18.75;68.88
71778;BME280;59609;52.430;4.668;2023-05-25T07:41:15;102923.22;;;18.07;69.29
71778;BME280;59609;52.430;4.668;2023-05-25T07:43:40;102916.38;;;18.01;69.86
71778;BME280;59609;52.430;4.668;2023-05-25T07:46:05;102918.59;;;18.23;70.29
71778;BME280;59609;52.430;4.668;2023-05-25T07:48:31;102921.72;;;18.20;70.93
71778;BME280;59609;52.430;4.668;2023-05-25T07:50:58;102926.66;;;18.00;70.92
71778;BME280;59609;52.430;4.668;2023-05-25T07:53:23;102922.88;;;18.10;72.05
71778;BME280;59609;52.430;4.668;2023-05-25T07:55:48;102925.47;;;18.37;70.21
71778;BME280;59609;52.430;4.668;2023-05-25T07:58:14;102926.09;;;18.23;71.06
71778;BME280;59609;52.430;4.668;2023-05-25T08:00:39;102920.63;;;18.47;71.00
71778;BME280;59609;52.430;4.668;2023-05-25T08:03:05;102932.03;;;18.54;68.67
71778;BME280;59609;52.430;4.668;2023-05-25T08:05:30;102929.16;;;18.71;67.91
71778;BME280;59609;52.430;4.668;2023-05-25T08:07:55;102937.56;;;18.87;67.69
71778;BME280;59609;52.430;4.668;2023-05-25T08:10:21;102924.94;;;18.67;67.09
71778;BME280;59609;52.430;4.668;2023-05-25T08:12:47;102933.31;;;18.67;67.74
71778;BME280;59609;52.430;4.668;2023-05-25T08:15:13;102938.75;;;18.43;68.85
71778;BME280;59609;52.430;4.668;2023-05-25T08:17:38;102941.41;;;18.86;66.51
71778;BME280;59609;52.430;4.668;2023-05-25T08:20:06;102936.03;;;19.01;65.53
71778;BME280;59609;52.430;4.668;2023-05-25T08:22:32;102944.53;;;18.83;65.06
71778;BME280;59609;52.430;4.668;2023-05-25T08:24:58;102948.56;;;18.89;66.24
71778;BME280;59609;52.430;4.668;2023-05-25T08:27:23;102953.94;;;18.48;69.35
71778;BME280;59609;52.430;4.668;2023-05-25T08:29:48;102955.25;;;18.28;69.50
71778;BME280;59609;52.430;4.668;2023-05-25T08:32:14;102955.69;;;18.16;69.20
71778;BME280;59609;52.430;4.668;2023-05-25T08:34:39;102947.63;;;18.05;69.43
71778;BME280;59609;52.430;4.668;2023-05-25T08:37:04;102961.28;;;18.16;69.35
71778;BME280;59609;52.430;4.668;2023-05-25T08:39:30;102966.53;;;17.93;70.09
71778;BME280;59609;52.430;4.668;2023-05-25T08:41:55;102967.84;;;18.07;67.75
71778;BME280;59609;52.430;4.668;2023-05-25T08:44:21;102960.72;;;17.86;69.79
71778;BME280;59609;52.430;4.668;2023-05-25T08:46:47;102955.75;;;17.98;70.39
71778;BME280;59609;52.430;4.668;2023-05-25T08:49:15;102958.97;;;17.85;70.10
71778;BME280;59609;52.430;4.668;2023-05-25T08:51:47;102963.84;;;17.83;69.43
71778;BME280;59609;52.430;4.668;2023-05-25T08:54:16;102969.19;;;17.94;69.82
71778;BME280;59609;52.430;4.668;2023-05-25T08:56:51;102957.41;;;18.42;67.49
71778;BME280;59609;52.430;4.668;2023-05-25T08:59:59;102968.75;;;18.15;69.78
71778;BME280;59609;52.430;4.668;2023-05-25T09:04:50;102969.25;;;17.85;69.83
71778;BME280;59609;52.430;4.668;2023-05-25T09:07:16;102973.72;;;17.42;71.03
71778;BME280;59609;52.430;4.668;2023-05-25T09:09:42;102965.19;;;17.09;73.12
71778;BME280;59609;52.430;4.668;2023-05-25T09:12:09;102966.19;;;17.17;73.19
71778;BME280;59609;52.430;4.668;2023-05-25T09:14:36;102971.34;;;16.94;73.57
71778;BME280;59609;52.430;4.668;2023-05-25T09:17:02;102969.81;;;17.00;73.48
71778;BME280;59609;52.430;4.668;2023-05-25T09:19:27;102961.38;;;17.10;72.78
71778;BME280;59609;52.430;4.668;2023-05-25T09:21:53;102970.94;;;17.25;72.44
71778;BME280;59609;52.430;4.668;2023-05-25T09:24:18;102982.09;;;17.25;71.76
71778;BME280;59609;52.430;4.668;2023-05-25T09:26:46;102969.31;;;17.05;72.99
71778;BME280;59609;52.430;4.668;2023-05-25T09:29:13;102981.63;;;17.29;72.42
71778;BME280;59609;52.430;4.668;2023-05-25T09:31:39;102987.94;;;17.67;71.16
71778;BME280;59609;52.430;4.668;2023-05-25T09:34:14;102978.53;;;17.68;70.80
71778;BME280;59609;52.430;4.668;2023-05-25T09:36:42;102976.81;;;17.92;68.97
71778;BME280;59609;52.430;4.668;2023-05-25T09:39:11;102982.03;;;17.70;70.30
71778;BME280;59609;52.430;4.668;2023-05-25T09:41:40;102984.63;;;17.89;69.05
71778;BME280;59609;52.430;4.668;2023-05-25T09:44:05;102982.78;;;17.97;68.66
71778;BME280;59609;52.430;4.668;2023-05-25T09:46:31;102984.19;;;18.01;67.67
71778;BME280;59609;52.430;4.668;2023-05-25T09:49:01;102977.91;;;17.99;66.96
71778;BME280;59609;52.430;4.668;2023-05-25T09:51:26;102969.59;;;18.33;66.46
71778;BME280;59609;52.430;4.668;2023-05-25T09:53:53;102970.78;;;18.57;66.09
71778;BME280;59609;52.430;4.668;2023-05-25T09:56:18;102974.94;;;18.52;66.26
71778;BME280;59609;52.430;4.668;2023-05-25T09:58:46;102973.50;;;18.74;63.63
71778;BME280;59609;52.430;4.668;2023-05-25T10:01:11;102981.03;;;18.22;64.17
71778;BME280;59609;52.430;4.668;2023-05-25T10:03:44;102989.28;;;18.32;63.18
71778;BME280;59609;52.430;4.668;2023-05-25T10:06:11;102993.09;;;18.05;64.27
71778;BME280;59609;52.430;4.668;2023-05-25T10:08:37;102990.38;;;17.52;65.68
71778;BME280;59609;52.430;4.668;2023-05-25T10:11:03;102991.25;;;17.35;66.52
71778;BME280;59609;52.430;4.668;2023-05-25T10:13:30;102997.72;;;17.53;66.17
71778;BME280;59609;52.430;4.668;2023-05-25T10:15:56;102993.78;;;17.11;67.50
71778;BME280;59609;52.430;4.668;2023-05-25T10:18:25;102994.91;;;17.35;67.87
71778;BME280;59609;52.430;4.668;2023-05-25T10:20:58;102999.13;;;17.22;67.62
71778;BME280;59609;52.430;4.668;2023-05-25T10:23:25;102999.94;;;17.49;67.75
71778;BME280;59609;52.430;4.668;2023-05-25T10:25:56;103002.19;;;17.64;66.29
71778;BME280;59609;52.430;4.668;2023-05-25T10:28:28;103005.84;;;17.46;66.98
71778;BME280;59609;52.430;4.668;2023-05-25T10:30:58;102996.78;;;17.62;66.74
71778;BME280;59609;52.430;4.668;2023-05-25T10:33:24;103002.56;;;17.51;65.80
71778;BME280;59609;52.430;4.668;2023-05-25T10:35:50;103003.13;;;17.72;66.44
71778;BME280;59609;52.430;4.668;2023-05-25T10:38:18;103003.59;;;17.50;67.01
71778;BME280;59609;52.430;4.668;2023-05-25T10:40:45;103002.25;;;17.54;64.79
71778;BME280;59609;52.430;4.668;2023-05-25T10:43:18;103000.91;;;17.40;64.04
71778;BME280;59609;52.430;4.668;2023-05-25T10:45:43;103004.00;;;17.55;62.58
71778;BME280;59609;52.430;4.668;2023-05-25T10:48:09;103004.91;;;17.56;60.28
71778;BME280;59609;52.430;4.668;2023-05-25T10:50:35;102999.75;;;18.04;60.95
71778;BME280;59609;52.430;4.668;2023-05-25T10:53:04;102998.34;;;18.08;59.37
71778;BME280;59609;52.430;4.668;2023-05-25T10:55:42;103007.91;;;18.23;57.62
71778;BME280;59609;52.430;4.668;2023-05-25T10:58:12;103003.06;;;18.51;57.22
71778;BME280;59609;52.430;4.668;2023-05-25T11:00:39;103013.69;;;18.56;55.13
71778;BME280;59609;52.430;4.668;2023-05-25T11:03:05;103021.09;;;18.65;55.05
71778;BME280;59609;52.430;4.668;2023-05-25T11:05:32;103021.25;;;18.97;54.35
71778;BME280;59609;52.430;4.668;2023-05-25T11:08:00;103021.66;;;18.76;55.55
71778;BME280;59609;52.430;4.668;2023-05-25T11:10:42;103009.38;;;19.03;55.06
71778;BME280;59609;52.430;4.668;2023-05-25T11:16:11;103007.19;;;19.39;54.25
71778;BME280;59609;52.430;4.668;2023-05-25T11:18:37;103003.41;;;19.48;53.55
71778;BME280;59609;52.430;4.668;2023-05-25T11:21:13;103006.31;;;18.80;54.72
71778;BME280;59609;52.430;4.668;2023-05-25T11:23:55;103013.41;;;19.00;55.32
71778;BME280;59609;52.430;4.668;2023-05-25T11:26:26;103010.09;;;18.63;57.94
71778;BME280;59609;52.430;4.668;2023-05-25T11:28:54;103011.06;;;18.28;58.35
71778;BME280;59609;52.430;4.668;2023-05-25T11:31:27;103004.34;;;18.13;58.95
71778;BME280;59609;52.430;4.668;2023-05-25T11:33:57;103004.19;;;18.40;58.43
71778;BME280;59609;52.430;4.668;2023-05-25T11:36:25;103005.03;;;18.15;59.26
71778;BME280;59609;52.430;4.668;2023-05-25T11:38:52;102987.69;;;18.29;58.79
71778;BME280;59609;52.430;4.668;2023-05-25T11:41:21;102995.91;;;18.90;58.03
71778;BME280;59609;52.430;4.668;2023-05-25T11:43:48;102982.47;;;19.02;56.69
71778;BME280;59609;52.430;4.668;2023-05-25T11:46:15;102977.56;;;19.70;55.16
71778;BME280;59609;52.430;4.668;2023-05-25T11:48:44;102979.81;;;20.07;52.11
71778;BME280;59609;52.430;4.668;2023-05-25T11:51:10;102979.41;;;20.42;51.48
71778;BME280;59609;52.430;4.668;2023-05-25T11:53:40;102972.75;;;20.82;50.68
71778;BME280;59609;52.430;4.668;2023-05-25T11:56:06;102978.78;;;21.02;49.01
71778;BME280;59609;52.430;4.668;2023-05-25T11:58:33;102982.47;;;20.64;50.16
71778;BME280;59609;52.430;4.668;2023-05-25T12:01:19;102983.53;;;20.63;50.36
71778;BME280;59609;52.430;4.668;2023-05-25T12:03:46;102975.28;;;20.69;46.51
71778;BME280;59609;52.430;4.668;2023-05-25T12:06:32;102967.97;;;20.52;48.35
71778;BME280;59609;52.430;4.668;2023-05-25T12:08:59;102967.59;;;20.63;47.90
71778;BME280;59609;52.430;4.668;2023-05-25T12:11:31;102981.34;;;20.34;48.64
71778;BME280;59609;52.430;4.668;2023-05-25T12:13:56;102986.03;;;20.49;48.75
71778;BME280;59609;52.430;4.668;2023-05-25T12:16:23;102977.09;;;20.93;46.82
71778;BME280;59609;52.430;4.668;2023-05-25T12:18:50;102975.13;;;21.32;45.80
71778;BME280;59609;52.430;4.668;2023-05-25T12:21:16;102974.06;;;21.11;46.32
71778;BME280;59609;52.430;4.668;2023-05-25T12:23:41;102974.25;;;20.62;45.90
71778;BME280;59609;52.430;4.668;2023-05-25T12:26:14;102979.97;;;20.38;45.58
71778;BME280;59609;52.430;4.668;2023-05-25T12:28:56;102965.72;;;21.25;44.87
71778;BME280;59609;52.430;4.668;2023-05-25T12:31:23;102971.56;;;22.06;43.78
71778;BME280;59609;52.430;4.668;2023-05-25T12:36:47;102973.63;;;22.86;41.40
71778;BME280;59609;52.430;4.668;2023-05-25T12:39:15;102974.19;;;23.32;39.80
71778;BME280;59609;52.430;4.668;2023-05-25T12:41:51;102983.19;;;21.81;41.88
71778;BME280;59609;52.430;4.668;2023-05-25T12:44:21;102989.19;;;21.78;43.01
71778;BME280;59609;52.430;4.668;2023-05-25T12:46:51;102973.69;;;22.19;42.33
71778;BME280;59609;52.430;4.668;2023-05-25T12:49:27;102976.22;;;22.29;42.32
71778;BME280;59609;52.430;4.668;2023-05-25T12:51:54;102980.16;;;21.82;43.30
71778;BME280;59609;52.430;4.668;2023-05-25T12:54:52;102977.44;;;21.97;43.45
71778;BME280;59609;52.430;4.668;2023-05-25T12:57:17;102973.50;;;21.83;42.32
71778;BME280;59609;52.430;4.668;2023-05-25T12:59:45;102982.22;;;22.26;42.44
71778;BME280;59609;52.430;4.668;2023-05-25T13:02:11;102974.47;;;21.53;42.91
71778;BME280;59609;52.430;4.668;2023-05-25T13:04:38;102987.09;;;21.49;43.42